createdAt,value
2017-11-21T00:00:20.118Z,0
2017-11-21T00:01:00.696Z,0
2017-11-21T00:01:41.306Z,0
2017-11-21T00:02:21.852Z,0
2017-11-21T00:03:02.425Z,0
2017-11-21T00:03:42.967Z,0
2017-11-21T00:04:23.832Z,0
2017-11-21T00:05:04.273Z,0
2017-11-21T00:05:44.849Z,0
2017-11-21T00:06:25.431Z,0
2017-11-21T00:07:06.003Z,0
2017-11-21T00:07:46.577Z,0
2017-11-21T00:08:27.173Z,0
2017-11-21T00:09:07.726Z,0
2017-11-21T00:09:48.297Z,0
2017-11-21T00:10:28.878Z,0
2017-11-21T00:11:09.445Z,0
2017-11-21T00:11:49.995Z,0
2017-11-21T00:12:30.565Z,0
2017-11-21T00:13:11.149Z,0
2017-11-21T00:13:51.718Z,0
2017-11-21T00:14:32.290Z,0
2017-11-21T00:15:12.865Z,0
2017-11-21T00:15:53.445Z,0
2017-11-21T00:16:34.013Z,0
2017-11-21T00:17:14.572Z,0
2017-11-21T00:17:55.182Z,0
2017-11-21T00:18:35.723Z,0
2017-11-21T00:19:16.292Z,0
2017-11-21T00:19:56.836Z,0
2017-11-21T00:20:37.420Z,0
2017-11-21T00:21:17.981Z,0
2017-11-21T00:21:59.525Z,0
2017-11-21T00:22:40.328Z,0
2017-11-21T00:23:20.842Z,0
2017-11-21T00:24:01.424Z,0
2017-11-21T00:24:41.982Z,0
2017-11-21T00:25:22.550Z,0
2017-11-21T00:26:03.149Z,0
2017-11-21T00:26:43.711Z,0
2017-11-21T00:27:24.245Z,0
2017-11-21T00:28:04.802Z,0
2017-11-21T00:28:45.418Z,0
2017-11-21T00:29:25.978Z,0
2017-11-21T00:30:06.549Z,0
2017-11-21T00:30:47.124Z,0
2017-11-21T00:31:27.667Z,0
2017-11-21T00:32:08.222Z,0
2017-11-21T00:32:48.796Z,0
2017-11-21T00:33:29.355Z,0
2017-11-21T00:34:09.918Z,0
2017-11-21T00:34:50.490Z,0
2017-11-21T00:35:31.054Z,0
2017-11-21T00:36:11.642Z,0
2017-11-21T00:36:52.195Z,0
2017-11-21T00:37:32.762Z,0
2017-11-21T00:38:13.328Z,0
2017-11-21T00:38:53.892Z,0
2017-11-21T00:39:34.464Z,0
2017-11-21T00:40:15.006Z,0
2017-11-21T00:40:55.562Z,0
2017-11-21T00:41:36.157Z,0
2017-11-21T00:42:16.726Z,0
2017-11-21T00:42:57.288Z,0
2017-11-21T00:43:37.885Z,0
2017-11-21T00:44:18.432Z,0
2017-11-21T00:44:59.024Z,0
2017-11-21T00:45:39.574Z,0
2017-11-21T00:46:20.135Z,0
2017-11-21T00:47:00.727Z,0
2017-11-21T00:47:41.288Z,0
2017-11-21T00:48:21.861Z,0
2017-11-21T00:49:02.452Z,0
2017-11-21T00:49:43.027Z,0
2017-11-21T00:50:23.589Z,0
2017-11-21T00:51:04.150Z,0
2017-11-21T00:51:44.699Z,0
2017-11-21T00:52:25.289Z,0
2017-11-21T00:53:05.858Z,0
2017-11-21T00:53:46.416Z,0
2017-11-21T00:54:26.985Z,0
2017-11-21T00:55:07.549Z,0
2017-11-21T00:55:48.102Z,0
2017-11-21T00:56:28.671Z,0
2017-11-21T00:57:09.241Z,0
2017-11-21T00:57:49.800Z,0
2017-11-21T00:58:30.378Z,0
2017-11-21T00:59:10.939Z,0
2017-11-21T00:59:51.507Z,0
2017-11-21T01:00:32.110Z,0
2017-11-21T01:02:45.429Z,0
2017-11-21T01:03:25.990Z,0
2017-11-21T01:04:06.534Z,0
2017-11-21T01:04:47.153Z,0
2017-11-21T01:05:27.700Z,0
2017-11-21T01:06:08.264Z,0
2017-11-21T01:06:48.839Z,0
2017-11-21T01:07:29.375Z,0
2017-11-21T01:08:09.922Z,0
2017-11-21T01:08:50.483Z,0
2017-11-21T01:09:31.051Z,0
2017-11-21T01:10:11.612Z,0
2017-11-21T01:10:52.173Z,0
2017-11-21T01:11:32.763Z,0
2017-11-21T01:12:13.318Z,0
2017-11-21T01:12:53.859Z,0
2017-11-21T01:13:34.417Z,0
2017-11-21T01:14:14.974Z,0
2017-11-21T01:14:55.531Z,0
2017-11-21T01:15:36.109Z,0
2017-11-21T01:16:16.675Z,0
2017-11-21T01:16:57.245Z,0
2017-11-21T01:17:37.822Z,0
2017-11-21T01:18:18.369Z,0
2017-11-21T01:18:58.916Z,0
2017-11-21T01:19:39.464Z,0
2017-11-21T01:20:20.046Z,0
2017-11-21T01:21:00.597Z,0
2017-11-21T01:21:41.157Z,0
2017-11-21T01:22:21.698Z,0
2017-11-21T01:23:02.273Z,0
2017-11-21T01:23:42.849Z,0
2017-11-21T01:24:23.390Z,0
2017-11-21T01:25:03.963Z,0
2017-11-21T01:25:44.516Z,0
2017-11-21T01:26:25.081Z,0
2017-11-21T01:27:05.647Z,0
2017-11-21T01:27:46.206Z,0
2017-11-21T01:28:26.772Z,0
2017-11-21T01:29:07.310Z,0
2017-11-21T01:29:47.858Z,0
2017-11-21T01:30:28.445Z,0
2017-11-21T01:31:09.015Z,0
2017-11-21T01:31:49.581Z,0
2017-11-21T01:32:30.137Z,0
2017-11-21T01:33:10.699Z,0
2017-11-21T01:33:51.338Z,0
2017-11-21T01:34:31.906Z,0
2017-11-21T01:35:12.468Z,0
2017-11-21T01:35:53.031Z,0
2017-11-21T01:36:33.639Z,0
2017-11-21T01:37:14.199Z,0
2017-11-21T01:37:54.742Z,0
2017-11-21T01:38:35.310Z,0
2017-11-21T01:39:15.871Z,0
2017-11-21T01:39:56.742Z,0
2017-11-21T01:40:37.302Z,0
2017-11-21T01:41:17.855Z,0
2017-11-21T01:41:58.431Z,0
2017-11-21T01:42:39.067Z,0
2017-11-21T01:43:19.635Z,0
2017-11-21T01:44:00.198Z,0
2017-11-21T01:44:40.772Z,0
2017-11-21T01:45:21.342Z,0
2017-11-21T01:46:01.884Z,0
2017-11-21T01:46:42.465Z,0
2017-11-21T01:47:22.982Z,0
2017-11-21T01:48:03.553Z,0
2017-11-21T01:48:44.135Z,0
2017-11-21T01:49:24.755Z,0
2017-11-21T01:50:05.291Z,0
2017-11-21T01:50:45.836Z,0
2017-11-21T01:51:26.395Z,0
2017-11-21T01:52:06.957Z,0
2017-11-21T01:52:47.526Z,0
2017-11-21T01:53:28.066Z,0
2017-11-21T01:54:08.654Z,0
2017-11-21T01:54:49.229Z,0
2017-11-21T01:55:29.785Z,0
2017-11-21T01:56:10.346Z,0
2017-11-21T01:56:50.902Z,0
2017-11-21T01:57:31.467Z,0
2017-11-21T01:58:12.022Z,0
2017-11-21T01:58:52.619Z,0
2017-11-21T01:59:33.180Z,0
2017-11-21T02:00:14.290Z,0
2017-11-21T02:00:54.552Z,0
2017-11-21T02:01:35.122Z,0
2017-11-21T02:02:15.697Z,0
2017-11-21T02:02:56.266Z,0
2017-11-21T02:03:36.858Z,0
2017-11-21T02:04:17.394Z,0
2017-11-21T02:04:57.958Z,0
2017-11-21T02:05:38.518Z,0
2017-11-21T02:06:19.084Z,0
2017-11-21T02:06:59.683Z,0
2017-11-21T02:07:40.248Z,0
2017-11-21T02:08:20.817Z,0
2017-11-21T02:09:01.358Z,0
2017-11-21T02:09:41.937Z,0
2017-11-21T02:10:22.493Z,0
2017-11-21T02:11:03.053Z,0
2017-11-21T02:11:43.604Z,0
2017-11-21T02:12:24.176Z,0
2017-11-21T02:13:04.739Z,0
2017-11-21T02:13:45.285Z,0
2017-11-21T02:14:25.849Z,0
2017-11-21T02:15:06.387Z,0
2017-11-21T02:15:46.953Z,0
2017-11-21T02:16:27.521Z,0
2017-11-21T02:17:08.091Z,0
2017-11-21T02:17:48.682Z,0
2017-11-21T02:18:29.257Z,0
2017-11-21T02:19:09.824Z,0
2017-11-21T02:19:50.383Z,0
2017-11-21T02:20:30.955Z,0
2017-11-21T02:21:11.515Z,0
2017-11-21T02:21:52.075Z,0
2017-11-21T02:22:32.639Z,0
2017-11-21T02:23:13.190Z,0
2017-11-21T02:23:53.749Z,0
2017-11-21T02:24:34.309Z,0
2017-11-21T02:25:14.877Z,0
2017-11-21T02:25:55.431Z,0
2017-11-21T02:26:35.995Z,0
2017-11-21T02:27:16.548Z,0
2017-11-21T02:27:57.115Z,0
2017-11-21T02:28:37.689Z,0
2017-11-21T02:29:18.260Z,0
2017-11-21T02:29:58.823Z,0
2017-11-21T02:30:39.391Z,0
2017-11-21T02:31:19.964Z,0
2017-11-21T02:32:00.537Z,0
2017-11-21T02:32:41.102Z,0
2017-11-21T02:33:21.708Z,0
2017-11-21T02:34:02.222Z,0
2017-11-21T02:34:42.802Z,0
2017-11-21T02:35:23.344Z,0
2017-11-21T02:36:03.885Z,0
2017-11-21T02:36:44.438Z,0
2017-11-21T02:37:25.011Z,0
2017-11-21T02:38:05.578Z,0
2017-11-21T02:38:46.180Z,0
2017-11-21T02:39:26.732Z,0
2017-11-21T02:40:07.283Z,0
2017-11-21T02:40:47.821Z,0
2017-11-21T02:41:28.412Z,0
2017-11-21T02:42:08.921Z,0
2017-11-21T02:42:49.469Z,0
2017-11-21T02:43:30.034Z,0
2017-11-21T02:44:10.590Z,0
2017-11-21T02:44:51.165Z,0
2017-11-21T02:45:31.717Z,0
2017-11-21T02:46:12.252Z,0
2017-11-21T02:46:52.805Z,0
2017-11-21T02:47:33.342Z,0
2017-11-21T02:48:13.988Z,0
2017-11-21T02:48:54.546Z,0
2017-11-21T02:49:35.115Z,0
2017-11-21T02:50:15.664Z,0
2017-11-21T02:50:56.224Z,0
2017-11-21T02:51:36.800Z,0
2017-11-21T02:52:17.391Z,0
2017-11-21T02:52:57.943Z,0
2017-11-21T02:53:38.507Z,0
2017-11-21T02:54:19.063Z,0
2017-11-21T02:54:59.566Z,0
2017-11-21T02:55:40.092Z,0
2017-11-21T02:56:20.646Z,0
2017-11-21T02:57:01.228Z,0
2017-11-21T02:57:41.794Z,0
2017-11-21T02:58:22.382Z,0
2017-11-21T02:59:02.941Z,0
2017-11-21T02:59:43.512Z,0
2017-11-21T03:00:24.064Z,0
2017-11-21T03:01:04.649Z,0
2017-11-21T03:01:45.211Z,0
2017-11-21T03:02:25.784Z,0
2017-11-21T03:03:06.435Z,0
2017-11-21T03:03:46.985Z,0
2017-11-21T03:04:27.552Z,0
2017-11-21T03:05:08.105Z,0
2017-11-21T03:05:48.677Z,0
2017-11-21T03:06:29.251Z,0
2017-11-21T03:07:09.803Z,0
2017-11-21T03:07:50.370Z,0
2017-11-21T03:08:30.948Z,0
2017-11-21T03:09:11.512Z,0
2017-11-21T03:09:52.067Z,0
2017-11-21T03:10:32.717Z,0
2017-11-21T03:11:13.286Z,0
2017-11-21T03:11:53.807Z,0
2017-11-21T03:12:34.344Z,0
2017-11-21T03:13:14.883Z,0
2017-11-21T03:13:55.433Z,0
2017-11-21T03:14:36.001Z,0
2017-11-21T03:15:16.556Z,0
2017-11-21T03:15:57.124Z,0
2017-11-21T03:16:37.691Z,0
2017-11-21T03:17:18.227Z,0
2017-11-21T03:19:46.771Z,0
2017-11-21T03:20:27.351Z,0
2017-11-21T03:21:07.908Z,0
2017-11-21T03:21:48.638Z,0
2017-11-21T03:22:29.193Z,0
2017-11-21T03:23:09.744Z,0
2017-11-21T03:23:50.312Z,0
2017-11-21T03:24:30.845Z,0
2017-11-21T03:25:11.392Z,0
2017-11-21T03:25:51.974Z,0
2017-11-21T03:26:32.530Z,0
2017-11-21T03:27:13.081Z,0
2017-11-21T03:27:53.635Z,0
2017-11-21T03:28:34.178Z,0
2017-11-21T03:29:14.743Z,0
2017-11-21T03:29:55.305Z,0
2017-11-21T03:30:35.888Z,0
2017-11-21T03:31:16.446Z,0
2017-11-21T03:31:56.998Z,0
2017-11-21T03:32:37.542Z,0
2017-11-21T03:33:18.093Z,0
2017-11-21T03:33:58.641Z,0
2017-11-21T03:34:39.190Z,0
2017-11-21T03:35:19.747Z,0
2017-11-21T03:36:00.300Z,0
2017-11-21T03:36:40.861Z,0
2017-11-21T03:37:21.428Z,0
2017-11-21T03:38:01.988Z,0
2017-11-21T03:38:42.514Z,0
2017-11-21T03:39:23.078Z,0
2017-11-21T03:40:03.640Z,0
2017-11-21T03:40:44.215Z,0
2017-11-21T03:41:24.774Z,0
2017-11-21T03:42:05.342Z,0
2017-11-21T03:42:45.896Z,0
2017-11-21T03:43:26.460Z,0
2017-11-21T03:44:07.017Z,0
2017-11-21T03:44:47.585Z,0
2017-11-21T03:45:28.154Z,0
2017-11-21T03:46:08.713Z,0
2017-11-21T03:46:49.279Z,0
2017-11-21T03:47:29.832Z,0
2017-11-21T03:48:10.396Z,0
2017-11-21T03:48:50.981Z,0
2017-11-21T03:49:31.518Z,0
2017-11-21T03:50:12.081Z,0
2017-11-21T03:50:52.652Z,0
2017-11-21T03:51:33.215Z,0
2017-11-21T03:52:13.765Z,0
2017-11-21T03:52:54.329Z,0
2017-11-21T03:53:34.877Z,0
2017-11-21T03:54:15.429Z,0
2017-11-21T03:54:56.001Z,0
2017-11-21T03:55:36.580Z,0
2017-11-21T03:56:17.139Z,0
2017-11-21T03:56:57.747Z,0
2017-11-21T03:57:38.289Z,0
2017-11-21T03:58:18.851Z,0
2017-11-21T03:58:59.422Z,0
2017-11-21T03:59:39.964Z,0
2017-11-21T04:00:20.518Z,0
2017-11-21T04:01:01.062Z,0
2017-11-21T04:01:41.624Z,0
2017-11-21T04:02:22.163Z,0
2017-11-21T04:03:02.704Z,0
2017-11-21T04:03:43.267Z,0
2017-11-21T04:04:23.827Z,0
2017-11-21T04:05:04.397Z,0
2017-11-21T04:05:45.107Z,0
2017-11-21T04:06:25.674Z,0
2017-11-21T04:07:06.241Z,0
2017-11-21T04:07:46.791Z,0
2017-11-21T04:08:27.365Z,0
2017-11-21T04:09:07.928Z,0
2017-11-21T04:09:48.503Z,0
2017-11-21T04:10:29.063Z,0
2017-11-21T04:11:09.616Z,0
2017-11-21T04:11:50.187Z,0
2017-11-21T04:12:30.746Z,0
2017-11-21T04:13:11.321Z,0
2017-11-21T04:13:51.872Z,0
2017-11-21T04:14:32.413Z,0
2017-11-21T04:15:12.965Z,0
2017-11-21T04:15:53.513Z,0
2017-11-21T04:16:34.088Z,0
2017-11-21T04:17:14.647Z,0
2017-11-21T04:17:55.211Z,0
2017-11-21T04:18:35.825Z,0
2017-11-21T04:19:16.344Z,0
2017-11-21T04:19:56.899Z,0
2017-11-21T04:20:37.467Z,0
2017-11-21T04:21:18.029Z,0
2017-11-21T04:21:58.577Z,0
2017-11-21T04:22:39.151Z,0
2017-11-21T04:23:19.697Z,0
2017-11-21T04:24:00.340Z,0
2017-11-21T04:24:40.883Z,0
2017-11-21T04:25:21.438Z,0
2017-11-21T04:26:01.988Z,0
2017-11-21T04:26:42.534Z,0
2017-11-21T04:27:23.078Z,0
2017-11-21T04:28:03.620Z,0
2017-11-21T04:28:44.191Z,0
2017-11-21T04:29:24.739Z,0
2017-11-21T04:30:05.298Z,0
2017-11-21T04:30:45.839Z,0
2017-11-21T04:31:26.454Z,0
2017-11-21T04:32:07.028Z,0
2017-11-21T04:32:47.602Z,0
2017-11-21T04:33:28.164Z,0
2017-11-21T04:34:08.706Z,0
2017-11-21T04:34:49.268Z,0
2017-11-21T04:35:29.814Z,0
2017-11-21T04:36:10.365Z,0
2017-11-21T04:36:50.927Z,0
2017-11-21T04:37:31.511Z,0
2017-11-21T04:38:12.065Z,0
2017-11-21T04:38:52.626Z,0
2017-11-21T04:39:33.194Z,0
2017-11-21T04:40:13.742Z,0
2017-11-21T04:40:54.320Z,0
2017-11-21T04:41:34.884Z,0
2017-11-21T04:42:15.437Z,0
2017-11-21T04:42:55.983Z,0
2017-11-21T04:43:36.542Z,0
2017-11-21T04:44:17.123Z,0
2017-11-21T04:44:57.670Z,0
2017-11-21T04:45:38.215Z,0
2017-11-21T04:46:18.779Z,0
2017-11-21T04:46:59.802Z,0
2017-11-21T04:47:39.973Z,0
2017-11-21T04:48:20.535Z,0
2017-11-21T04:49:01.101Z,0
2017-11-21T04:49:41.673Z,0
2017-11-21T04:50:22.257Z,0
2017-11-21T04:51:02.806Z,0
2017-11-21T04:51:43.374Z,0
2017-11-21T04:52:23.940Z,0
2017-11-21T04:53:04.482Z,0
2017-11-21T04:53:45.044Z,0
2017-11-21T04:54:25.622Z,0
2017-11-21T04:55:06.232Z,0
2017-11-21T04:55:46.790Z,0
2017-11-21T04:56:27.349Z,0
2017-11-21T04:57:07.992Z,0
2017-11-21T04:57:48.530Z,0
2017-11-21T04:58:29.081Z,0
2017-11-21T04:59:09.626Z,0
2017-11-21T04:59:50.189Z,0
2017-11-21T05:00:30.736Z,0
2017-11-21T05:01:11.293Z,0
2017-11-21T05:01:51.852Z,0
2017-11-21T05:02:32.447Z,0
2017-11-21T05:03:12.954Z,0
2017-11-21T05:03:53.517Z,0
2017-11-21T05:04:34.069Z,0
2017-11-21T05:05:14.624Z,0
2017-11-21T05:05:55.171Z,0
2017-11-21T05:06:35.721Z,0
2017-11-21T05:07:16.279Z,0
2017-11-21T05:07:56.827Z,0
2017-11-21T05:08:37.391Z,0
2017-11-21T05:09:17.948Z,0
2017-11-21T05:09:58.518Z,0
2017-11-21T05:10:39.093Z,0
2017-11-21T05:11:19.651Z,0
2017-11-21T05:12:00.222Z,0
2017-11-21T05:12:40.773Z,0
2017-11-21T05:13:21.331Z,0
2017-11-21T05:14:01.887Z,0
2017-11-21T05:14:42.477Z,0
2017-11-21T05:15:23.052Z,0
2017-11-21T05:16:03.588Z,0
2017-11-21T05:16:44.177Z,0
2017-11-21T05:17:24.702Z,0
2017-11-21T05:18:05.268Z,0
2017-11-21T05:18:45.820Z,0
2017-11-21T05:19:26.396Z,0
2017-11-21T05:20:06.950Z,0
2017-11-21T05:20:47.510Z,0
2017-11-21T05:21:28.170Z,0
2017-11-21T05:22:08.726Z,0
2017-11-21T05:22:49.298Z,0
2017-11-21T05:23:29.877Z,0
2017-11-21T05:24:10.419Z,0
2017-11-21T05:24:51.005Z,0
2017-11-21T05:25:31.569Z,0
2017-11-21T05:26:12.136Z,0
2017-11-21T05:26:52.749Z,0
2017-11-21T05:27:33.268Z,0
2017-11-21T05:28:13.821Z,0
2017-11-21T05:28:54.360Z,0
2017-11-21T05:29:34.906Z,0
2017-11-21T05:30:15.485Z,0
2017-11-21T05:30:56.028Z,0
2017-11-21T05:31:36.578Z,0
2017-11-21T05:32:17.142Z,0
2017-11-21T05:32:57.726Z,0
2017-11-21T05:33:38.291Z,0
2017-11-21T05:34:18.846Z,0
2017-11-21T05:34:59.421Z,0
2017-11-21T05:35:39.982Z,0
2017-11-21T05:36:20.543Z,0
2017-11-21T05:37:01.089Z,0
2017-11-21T05:37:41.653Z,0
2017-11-21T05:38:22.245Z,0
2017-11-21T05:39:02.822Z,0
2017-11-21T05:39:43.386Z,0
2017-11-21T05:40:23.930Z,0
2017-11-21T05:41:04.503Z,0
2017-11-21T05:41:45.071Z,0
2017-11-21T05:42:25.616Z,0
2017-11-21T05:43:06.173Z,0
2017-11-21T05:43:46.724Z,0
2017-11-21T05:44:27.277Z,0
2017-11-21T05:45:07.824Z,0
2017-11-21T05:45:48.388Z,0
2017-11-21T05:46:28.937Z,0
2017-11-21T05:47:09.491Z,0
2017-11-21T05:47:50.069Z,0
2017-11-21T05:48:30.614Z,0
2017-11-21T05:49:11.182Z,0
2017-11-21T05:49:51.723Z,0
2017-11-21T05:50:32.280Z,0
2017-11-21T05:51:12.839Z,0
2017-11-21T05:51:53.426Z,0
2017-11-21T05:52:33.994Z,0
2017-11-21T05:53:14.554Z,0
2017-11-21T05:53:55.112Z,0
2017-11-21T05:54:35.665Z,0
2017-11-21T05:55:16.324Z,0
2017-11-21T05:55:56.878Z,0
2017-11-21T05:56:37.446Z,0
2017-11-21T05:57:17.981Z,0
2017-11-21T05:57:58.538Z,0
2017-11-21T05:58:39.102Z,0
2017-11-21T05:59:19.657Z,0
2017-11-21T06:00:00.226Z,0
2017-11-21T06:00:40.808Z,0
2017-11-21T06:01:21.358Z,0
2017-11-21T06:02:01.961Z,0
2017-11-21T06:02:42.519Z,0
2017-11-21T06:03:23.065Z,0
2017-11-21T06:04:03.642Z,0
2017-11-21T06:04:44.226Z,0
2017-11-21T06:05:24.770Z,0
2017-11-21T06:06:05.310Z,0
2017-11-21T06:06:45.911Z,0
2017-11-21T06:07:26.487Z,0
2017-11-21T06:08:07.049Z,0
2017-11-21T06:08:47.598Z,0
2017-11-21T06:09:28.137Z,0
2017-11-21T06:10:08.696Z,0
2017-11-21T06:10:49.258Z,0
2017-11-21T06:11:29.817Z,0
2017-11-21T06:12:10.379Z,0
2017-11-21T06:12:50.926Z,0
2017-11-21T06:13:31.498Z,0
2017-11-21T06:14:12.105Z,0
2017-11-21T06:14:52.640Z,0
2017-11-21T06:15:33.240Z,0
2017-11-21T06:16:13.798Z,0
2017-11-21T06:16:54.366Z,0
2017-11-21T06:17:34.939Z,0
2017-11-21T06:18:15.495Z,0
2017-11-21T06:18:56.069Z,0
2017-11-21T06:19:36.630Z,0
2017-11-21T06:20:17.178Z,0
2017-11-21T06:20:57.724Z,0
2017-11-21T06:21:38.261Z,0
2017-11-21T06:22:18.808Z,4
2017-11-21T06:22:59.347Z,4
2017-11-21T06:23:39.906Z,4
2017-11-21T06:24:20.492Z,0
2017-11-21T06:25:01.055Z,4
2017-11-21T06:25:41.748Z,4
2017-11-21T06:26:22.365Z,4
2017-11-21T06:27:02.820Z,4
2017-11-21T06:27:43.363Z,8
2017-11-21T06:28:23.913Z,4
2017-11-21T06:29:04.468Z,8
2017-11-21T06:29:45.037Z,8
2017-11-21T06:30:25.612Z,8
2017-11-21T06:31:06.187Z,12
2017-11-21T06:31:46.759Z,12
2017-11-21T06:32:27.309Z,12
2017-11-21T06:33:07.887Z,12
2017-11-21T06:33:48.447Z,16
2017-11-21T06:34:29.032Z,12
2017-11-21T06:35:09.633Z,16
2017-11-21T06:35:50.157Z,16
2017-11-21T06:36:30.718Z,16
2017-11-21T06:37:11.567Z,20
2017-11-21T06:37:52.109Z,20
2017-11-21T06:38:32.678Z,16
2017-11-21T06:39:13.216Z,20
2017-11-21T06:39:53.786Z,16
2017-11-21T06:40:34.356Z,16
2017-11-21T06:41:14.918Z,20
2017-11-21T06:41:55.494Z,20
2017-11-21T06:42:36.061Z,20
2017-11-21T06:43:16.645Z,20
2017-11-21T06:43:57.303Z,20
2017-11-21T06:44:37.896Z,20
2017-11-21T06:45:18.472Z,28
2017-11-21T06:45:59.117Z,28
2017-11-21T06:46:39.738Z,32
2017-11-21T06:47:20.300Z,40
2017-11-21T06:48:00.869Z,36
2017-11-21T06:48:41.417Z,40
2017-11-21T06:49:22.055Z,40
2017-11-21T06:50:02.672Z,44
2017-11-21T06:50:44.687Z,44
2017-11-21T06:51:24.648Z,40
2017-11-21T06:52:05.218Z,44
2017-11-21T06:52:45.757Z,44
2017-11-21T06:53:26.323Z,44
2017-11-21T06:54:06.872Z,48
2017-11-21T06:54:47.432Z,48
2017-11-21T06:55:28.051Z,48
2017-11-21T06:56:08.595Z,60
2017-11-21T06:56:49.156Z,64
2017-11-21T06:57:29.727Z,68
2017-11-21T06:58:10.413Z,68
2017-11-21T06:58:50.979Z,64
2017-11-21T06:59:31.547Z,72
2017-11-21T07:00:12.096Z,76
2017-11-21T07:00:52.664Z,68
2017-11-21T07:01:33.267Z,68
2017-11-21T07:02:13.950Z,60
2017-11-21T07:02:54.473Z,56
2017-11-21T07:03:34.968Z,60
2017-11-21T07:04:15.572Z,68
2017-11-21T07:04:56.134Z,76
2017-11-21T07:05:36.725Z,88
2017-11-21T07:06:17.448Z,88
2017-11-21T07:06:58.064Z,92
2017-11-21T07:07:38.662Z,92
2017-11-21T07:08:19.368Z,108
2017-11-21T07:08:59.872Z,112
2017-11-21T07:09:40.439Z,124
2017-11-21T07:10:21.074Z,128
2017-11-21T07:11:01.586Z,136
2017-11-21T07:11:42.160Z,136
2017-11-21T07:12:22.714Z,140
2017-11-21T07:13:03.268Z,132
2017-11-21T07:13:43.834Z,148
2017-11-21T07:14:24.384Z,148
2017-11-21T07:15:04.942Z,148
2017-11-21T07:15:45.494Z,152
2017-11-21T07:16:26.062Z,160
2017-11-21T07:17:06.612Z,176
2017-11-21T07:17:47.177Z,192
2017-11-21T07:18:27.770Z,212
2017-11-21T07:19:08.315Z,220
2017-11-21T07:19:48.897Z,232
2017-11-21T07:20:29.482Z,268
2017-11-21T07:21:10.133Z,292
2017-11-21T07:21:50.732Z,312
2017-11-21T07:22:31.252Z,288
2017-11-21T07:23:11.818Z,344
2017-11-21T07:23:52.373Z,348
2017-11-21T07:24:32.940Z,364
2017-11-21T07:25:13.516Z,360
2017-11-21T07:25:54.078Z,348
2017-11-21T07:26:34.693Z,312
2017-11-21T07:27:15.255Z,316
2017-11-21T07:27:55.842Z,288
2017-11-21T07:28:36.425Z,304
2017-11-21T07:29:16.986Z,288
2017-11-21T07:29:57.558Z,288
2017-11-21T07:30:38.111Z,288
2017-11-21T07:31:18.627Z,272
2017-11-21T07:31:59.199Z,276
2017-11-21T07:32:39.789Z,300
2017-11-21T07:33:20.353Z,312
2017-11-21T07:34:01.051Z,320
2017-11-21T07:34:41.637Z,352
2017-11-21T07:35:22.220Z,360
2017-11-21T07:36:02.781Z,384
2017-11-21T07:36:43.397Z,408
2017-11-21T07:37:23.973Z,384
2017-11-21T07:38:04.538Z,392
2017-11-21T07:38:45.081Z,392
2017-11-21T07:39:25.663Z,416
2017-11-21T07:40:06.246Z,460
2017-11-21T07:40:46.810Z,504
2017-11-21T07:41:27.383Z,512
2017-11-21T07:42:07.957Z,496
2017-11-21T07:42:48.543Z,500
2017-11-21T07:43:29.107Z,508
2017-11-21T07:44:09.667Z,500
2017-11-21T07:44:50.305Z,512
2017-11-21T07:45:30.878Z,568
2017-11-21T07:46:11.472Z,584
2017-11-21T07:46:52.031Z,628
2017-11-21T07:47:32.588Z,644
2017-11-21T07:48:13.119Z,628
2017-11-21T07:48:53.669Z,624
2017-11-21T07:49:34.225Z,600
2017-11-21T07:50:14.780Z,628
2017-11-21T07:50:55.517Z,664
2017-11-21T07:51:36.112Z,716
2017-11-21T07:52:16.701Z,796
2017-11-21T07:52:57.372Z,896
2017-11-21T07:53:38.074Z,904
2017-11-21T07:54:18.623Z,904
2017-11-21T07:54:59.170Z,824
2017-11-21T07:55:39.705Z,764
2017-11-21T07:56:20.257Z,704
2017-11-21T07:57:00.910Z,664
2017-11-21T07:57:41.516Z,648
2017-11-21T07:58:22.081Z,596
2017-11-21T07:59:02.653Z,564
2017-11-21T07:59:43.207Z,556
2017-11-21T08:00:23.783Z,484
2017-11-21T08:01:04.347Z,536
2017-11-21T08:01:44.906Z,512
2017-11-21T08:02:25.495Z,540
2017-11-21T08:03:06.075Z,560
2017-11-21T08:03:46.642Z,572
2017-11-21T08:04:27.208Z,556
2017-11-21T08:05:07.774Z,600
2017-11-21T08:05:48.326Z,572
2017-11-21T08:06:28.883Z,580
2017-11-21T08:07:09.443Z,556
2017-11-21T08:07:50.030Z,620
2017-11-21T08:08:30.594Z,560
2017-11-21T08:09:11.139Z,580
2017-11-21T08:09:51.720Z,584
2017-11-21T08:10:32.270Z,684
2017-11-21T08:11:12.836Z,680
2017-11-21T08:11:53.387Z,808
2017-11-21T08:12:33.966Z,760
2017-11-21T08:13:14.524Z,812
2017-11-21T08:13:55.070Z,816
2017-11-21T08:14:35.635Z,844
2017-11-21T08:15:16.180Z,876
2017-11-21T08:15:56.751Z,916
2017-11-21T08:16:37.316Z,900
2017-11-21T08:17:17.861Z,800
2017-11-21T08:17:58.437Z,752
2017-11-21T08:18:39.011Z,708
2017-11-21T08:19:19.568Z,700
2017-11-21T08:20:00.115Z,724
2017-11-21T08:20:40.660Z,664
2017-11-21T08:21:21.210Z,604
2017-11-21T08:22:01.781Z,600
2017-11-21T08:22:42.338Z,552
2017-11-21T08:23:22.946Z,476
2017-11-21T08:24:03.515Z,444
2017-11-21T08:24:44.083Z,408
2017-11-21T08:25:24.640Z,396
2017-11-21T08:26:05.182Z,376
2017-11-21T08:26:45.756Z,368
2017-11-21T08:27:26.321Z,360
2017-11-21T08:28:06.866Z,348
2017-11-21T08:28:47.713Z,332
2017-11-21T08:29:28.286Z,348
2017-11-21T08:30:08.840Z,356
2017-11-21T08:30:49.407Z,360
2017-11-21T08:31:29.976Z,348
2017-11-21T08:32:10.557Z,336
2017-11-21T08:32:51.321Z,340
2017-11-21T08:33:31.763Z,344
2017-11-21T08:34:12.314Z,336
2017-11-21T08:34:52.896Z,344
2017-11-21T08:35:33.794Z,380
2017-11-21T08:36:14.600Z,412
2017-11-21T08:36:55.993Z,420
2017-11-21T08:37:36.608Z,428
2017-11-21T08:38:17.197Z,452
2017-11-21T08:38:57.764Z,488
2017-11-21T08:39:38.327Z,524
2017-11-21T08:40:18.900Z,564
2017-11-21T08:40:59.473Z,604
2017-11-21T08:41:40.007Z,636
2017-11-21T08:42:20.586Z,676
2017-11-21T08:43:01.215Z,676
2017-11-21T08:43:41.971Z,680
2017-11-21T08:44:22.619Z,628
2017-11-21T08:45:03.228Z,576
2017-11-21T08:45:43.799Z,556
2017-11-21T08:46:24.366Z,560
2017-11-21T08:47:04.934Z,556
2017-11-21T08:47:45.493Z,540
2017-11-21T08:48:26.057Z,544
2017-11-21T08:49:06.613Z,556
2017-11-21T08:49:47.175Z,532
2017-11-21T08:50:27.747Z,560
2017-11-21T08:51:08.312Z,564
2017-11-21T08:51:48.911Z,560
2017-11-21T08:52:29.466Z,556
2017-11-21T08:53:10.066Z,568
2017-11-21T08:53:50.657Z,584
2017-11-21T08:54:31.227Z,608
2017-11-21T08:55:11.784Z,632
2017-11-21T08:55:52.348Z,640
2017-11-21T08:56:32.921Z,656
2017-11-21T08:57:13.498Z,708
2017-11-21T08:57:54.091Z,740
2017-11-21T08:58:34.729Z,796
2017-11-21T08:59:15.304Z,836
2017-11-21T08:59:55.873Z,924
2017-11-21T09:00:36.454Z,1020
2017-11-21T09:01:17.019Z,1092
2017-11-21T09:01:57.589Z,1180
2017-11-21T09:02:38.150Z,1248
2017-11-21T09:03:18.734Z,1252
2017-11-21T09:03:59.285Z,1224
2017-11-21T09:04:39.851Z,1300
2017-11-21T09:05:20.447Z,1348
2017-11-21T09:06:01.028Z,1328
2017-11-21T09:06:41.611Z,1508
2017-11-21T09:07:22.205Z,1420
2017-11-21T09:08:02.775Z,1316
2017-11-21T09:08:43.325Z,1412
2017-11-21T09:09:23.919Z,1416
2017-11-21T09:10:04.461Z,1312
2017-11-21T09:10:45.082Z,1360
2017-11-21T09:11:25.648Z,1328
2017-11-21T09:12:06.264Z,1472
2017-11-21T09:12:46.830Z,1456
2017-11-21T09:13:27.383Z,1480
2017-11-21T09:14:07.957Z,1496
2017-11-21T09:14:48.530Z,1412
2017-11-21T09:15:29.179Z,1628
2017-11-21T09:16:09.810Z,1572
2017-11-21T09:16:50.368Z,1564
2017-11-21T09:17:30.922Z,1396
2017-11-21T09:18:11.496Z,1284
2017-11-21T09:18:52.050Z,1132
2017-11-21T09:19:32.631Z,952
2017-11-21T09:20:13.198Z,896
2017-11-21T09:20:53.747Z,868
2017-11-21T09:21:34.306Z,912
2017-11-21T09:22:14.872Z,984
2017-11-21T09:22:55.431Z,1008
2017-11-21T09:23:36.043Z,1104
2017-11-21T09:24:16.652Z,1108
2017-11-21T09:24:57.214Z,1076
2017-11-21T09:25:37.781Z,1084
2017-11-21T09:26:18.369Z,1148
2017-11-21T09:26:58.892Z,1148
2017-11-21T09:27:39.454Z,1080
2017-11-21T09:28:20.014Z,1004
2017-11-21T09:29:00.593Z,1108
2017-11-21T09:29:41.173Z,1160
2017-11-21T09:30:21.743Z,1184
2017-11-21T09:31:02.336Z,1176
2017-11-21T09:31:42.878Z,1116
2017-11-21T09:32:23.438Z,980
2017-11-21T09:33:04.014Z,860
2017-11-21T09:33:44.562Z,908
2017-11-21T09:34:25.120Z,872
2017-11-21T09:35:05.679Z,848
2017-11-21T09:35:46.225Z,728
2017-11-21T09:36:26.814Z,708
2017-11-21T09:37:07.351Z,684
2017-11-21T09:37:47.912Z,736
2017-11-21T09:38:28.492Z,700
2017-11-21T09:39:09.054Z,880
2017-11-21T09:39:49.613Z,916
2017-11-21T09:40:30.183Z,860
2017-11-21T09:41:11.168Z,924
2017-11-21T09:41:51.981Z,1020
2017-11-21T09:42:32.709Z,960
2017-11-21T09:43:13.258Z,1048
2017-11-21T09:43:53.784Z,1088
2017-11-21T09:44:34.384Z,1032
2017-11-21T09:45:14.970Z,1120
2017-11-21T09:45:55.530Z,1276
2017-11-21T09:46:36.184Z,1296
2017-11-21T09:47:16.701Z,1320
2017-11-21T09:47:57.245Z,1204
2017-11-21T09:48:37.821Z,1032